Time;durP1;ratioP1;P1;durP2;ratioP2;P2;SDS_P1;SDS_P2;PMS_P1;PMS_P2;Temp;Humidity;BMP_temperature;BMP_pressure;BME280_temperature;BME280_humidity;BME280_pressure;Samples;Min_cycle;Max_cycle;Signal;HPM_P1;HPM_P2
2023/06/01 00:01:37;;;;;;;11.48;7.38;;;21.40;67.40;;;;;;5071581;28;20028;-71
2023/06/01 00:04:07;;;;;;;12.00;7.50;;;21.40;67.80;;;;;;5115731;28;20036;-71
2023/06/01 00:06:33;;;;;;;12.70;7.00;;;21.30;68.40;;;;;;5115776;28;20019;-71
2023/06/01 00:08:59;;;;;;;11.13;7.40;;;21.30;68.10;;;;;;5116019;28;20449;-71
2023/06/01 00:11:25;;;;;;;8.80;6.43;;;21.30;68.80;;;;;;5115645;28;20023;-71
2023/06/01 00:13:52;;;;;;;11.48;7.72;;;21.20;68.90;;;;;;5115544;28;20100;-70
2023/06/01 00:16:18;;;;;;;13.15;7.40;;;21.20;68.50;;;;;;5115355;28;20040;-71
2023/06/01 00:18:44;;;;;;;13.18;7.88;;;21.20;68.50;;;;;;5115263;28;20032;-71
2023/06/01 00:21:10;;;;;;;9.88;6.72;;;21.20;68.60;;;;;;5115085;28;20106;-70
2023/06/01 00:23:36;;;;;;;13.35;6.60;;;21.20;68.70;;;;;;5115018;28;20472;-71
2023/06/01 00:26:02;;;;;;;14.20;7.13;;;21.10;68.90;;;;;;5115451;28;20034;-71
2023/06/01 00:28:28;;;;;;;9.80;7.63;;;21.10;68.70;;;;;;5096911;28;20027;-70
2023/06/01 00:30:54;;;;;;;16.70;6.68;;;21.10;69.20;;;;;;5115109;28;20034;-70
2023/06/01 00:33:20;;;;;;;11.75;7.25;;;21.10;69.60;;;;;;5115068;28;20027;-70
2023/06/01 00:35:46;;;;;;;15.95;7.35;;;21.10;69.50;;;;;;5115161;28;20026;-69
2023/06/01 00:38:12;;;;;;;14.10;7.18;;;21.00;69.80;;;;;;5114916;28;20038;-70
2023/06/01 00:40:38;;;;;;;11.35;7.75;;;21.00;69.50;;;;;;5115373;28;20027;-70
2023/06/01 00:43:04;;;;;;;10.88;7.47;;;21.00;69.20;;;;;;5096670;28;20027;-70
2023/06/01 00:45:30;;;;;;;13.52;7.43;;;21.00;69.80;;;;;;5115083;28;20055;-70
2023/06/01 00:47:56;;;;;;;10.70;7.28;;;20.90;69.70;;;;;;5114752;28;20038;-70
2023/06/01 00:50:22;;;;;;;9.73;7.22;;;20.90;69.50;;;;;;5114709;28;20016;-70
2023/06/01 00:52:52;;;;;;;12.00;7.32;;;20.80;69.50;;;;;;5114725;28;20100;-70
2023/06/01 00:55:20;;;;;;;12.70;7.45;;;20.80;69.50;;;;;;5114625;28;20034;-70
2023/06/01 00:57:48;;;;;;;12.77;7.38;;;20.80;70.10;;;;;;5114197;28;20062;-71
2023/06/01 01:00:14;;;;;;;11.05;7.38;;;20.80;70.10;;;;;;5112785;28;20031;-71
2023/06/01 01:02:44;;;;;;;12.90;6.88;;;20.80;69.90;;;;;;5112319;28;20034;-71
2023/06/01 01:05:10;;;;;;;21.00;6.88;;;20.80;70.40;;;;;;5095110;28;20101;-71
2023/06/01 01:08:10;;;;;;;14.80;7.35;;;20.70;70.10;;;;;;5114958;28;20027;-71
2023/06/01 01:17:51;;;;;;;10.95;6.90;;;20.70;71.50;;;;;;5072323;28;20044;-70
2023/06/01 01:24:21;;;;;;;11.65;7.13;;;20.60;70.90;;;;;;5069147;28;20638;-70
2023/06/01 01:27:24;;;;;;;10.68;7.03;;;20.60;71.20;;;;;;5093524;28;20020;-70
2023/06/01 01:30:31;;;;;;;11.45;7.18;;;20.60;71.10;;;;;;5093110;28;20441;-70
2023/06/01 01:33:01;;;;;;;9.80;7.45;;;20.50;71.30;;;;;;5093612;28;20384;-70
2023/06/01 01:35:28;;;;;;;9.95;7.30;;;20.50;71.20;;;;;;5093770;28;20024;-70
2023/06/01 01:37:54;;;;;;;14.75;7.43;;;20.50;71.30;;;;;;5092582;28;20444;-70
2023/06/01 01:40:21;;;;;;;10.15;6.85;;;20.50;71.40;;;;;;5093399;28;20032;-70
2023/06/01 01:42:49;;;;;;;11.70;7.15;;;20.50;72.00;;;;;;5093533;28;20379;-70
2023/06/01 01:45:16;;;;;;;10.55;7.30;;;20.50;72.30;;;;;;5075468;28;20028;-70
2023/06/01 01:48:10;;;;;;;12.43;7.18;;;20.40;72.00;;;;;;5093464;28;20069;-70
2023/06/01 01:50:51;;;;;;;13.20;7.40;;;20.40;72.20;;;;;;5088799;28;20043;-70
2023/06/01 01:53:18;;;;;;;12.27;7.13;;;20.40;71.80;;;;;;5093166;28;20116;-71
2023/06/01 01:55:48;;;;;;;9.20;6.90;;;20.30;71.70;;;;;;5093084;28;20082;-70
2023/06/01 01:58:15;;;;;;;10.05;7.40;;;20.30;72.40;;;;;;5093235;28;20059;-70
2023/06/01 02:00:43;;;;;;;10.38;7.10;;;20.30;72.60;;;;;;5092855;28;20033;-71
2023/06/01 02:03:17;;;;;;;10.40;7.35;;;20.30;72.70;;;;;;5092712;28;20028;-70
2023/06/01 02:05:43;;;;;;;12.60;6.97;;;20.20;72.80;;;;;;5093317;28;20336;-71
2023/06/01 02:08:09;;;;;;;13.73;7.07;;;20.20;72.90;;;;;;5092807;28;20465;-69
2023/06/01 02:10:35;;;;;;;9.07;7.07;;;20.20;72.80;;;;;;5092556;28;20050;-69
2023/06/01 02:13:01;;;;;;;9.43;6.93;;;20.10;72.90;;;;;;5093094;28;20024;-69
2023/06/01 02:15:27;;;;;;;13.60;7.00;;;20.20;72.90;;;;;;5108456;28;20062;-69
2023/06/01 02:17:53;;;;;;;9.50;6.90;;;20.20;72.90;;;;;;5113123;28;20027;-69
2023/06/01 02:20:19;;;;;;;12.93;7.30;;;20.10;72.60;;;;;;5113154;28;20440;-69
2023/06/01 02:22:45;;;;;;;11.50;7.93;;;20.10;73.00;;;;;;5112863;28;20027;-69
2023/06/01 02:25:11;;;;;;;10.88;7.55;;;20.10;73.20;;;;;;5112705;28;20032;-69
2023/06/01 02:27:37;;;;;;;11.88;7.28;;;20.10;73.70;;;;;;5112866;28;20049;-69
2023/06/01 02:30:06;;;;;;;11.00;7.28;;;20.00;72.90;;;;;;5112588;28;20378;-69
2023/06/01 02:32:32;;;;;;;14.27;7.40;;;20.00;73.00;;;;;;5112869;28;20016;-69
2023/06/01 02:34:58;;;;;;;12.10;7.75;;;20.00;73.30;;;;;;5113106;28;20023;-70
2023/06/01 02:37:24;;;;;;;11.90;7.40;;;20.00;73.60;;;;;;5113733;28;20028;-70
2023/06/01 02:39:50;;;;;;;13.25;7.45;;;19.90;73.50;;;;;;5113540;28;20379;-69
2023/06/01 02:42:16;;;;;;;12.77;7.07;;;19.90;73.30;;;;;;5113782;28;20388;-69
2023/06/01 02:45:33;;;;;;;15.75;7.47;;;19.90;73.10;;;;;;5113232;28;20031;-70
2023/06/01 03:08:42;;;;;;;13.02;7.18;;;19.70;74.90;;;;;;4971832;28;20107;-71
2023/06/01 03:11:08;;;;;;;14.18;7.22;;;19.70;74.50;;;;;;5030082;28;20045;-70
2023/06/01 03:13:34;;;;;;;12.45;7.85;;;19.60;74.10;;;;;;5087525;28;20372;-69
2023/06/01 03:16:00;;;;;;;11.50;7.85;;;19.60;74.00;;;;;;5112452;28;20081;-69
2023/06/01 03:18:26;;;;;;;12.20;7.57;;;19.60;74.30;;;;;;5112558;28;20028;-69
2023/06/01 03:20:52;;;;;;;13.00;7.80;;;19.60;74.90;;;;;;5112935;28;20103;-69
2023/06/01 03:23:18;;;;;;;13.98;7.63;;;19.60;75.10;;;;;;5115165;28;20063;-69
2023/06/01 03:25:43;;;;;;;10.48;7.57;;;19.50;75.00;;;;;;5116582;28;20055;-69
2023/06/01 03:28:09;;;;;;;16.00;7.88;;;19.50;75.50;;;;;;5116626;28;20019;-70
2023/06/01 03:30:35;;;;;;;11.57;7.75;;;19.50;75.60;;;;;;5116639;28;20028;-70
2023/06/01 03:33:01;;;;;;;12.25;7.10;;;19.50;75.60;;;;;;5116660;28;20098;-70
2023/06/01 03:35:27;;;;;;;10.25;6.60;;;19.50;76.00;;;;;;5116443;28;20024;-69
2023/06/01 03:37:52;;;;;;;12.23;7.18;;;19.50;76.20;;;;;;5116184;28;20058;-69
2023/06/01 03:40:18;;;;;;;14.38;7.00;;;19.50;75.70;;;;;;5116266;28;20085;-69
2023/06/01 03:42:46;;;;;;;11.40;6.75;;;19.50;75.30;;;;;;5098217;28;20030;-70
2023/06/01 03:45:14;;;;;;;19.02;7.78;;;19.50;75.50;;;;;;5116148;28;20810;-70
2023/06/01 03:47:40;;;;;;;9.73;6.82;;;19.40;75.60;;;;;;5116278;28;20486;-70
2023/06/01 03:50:08;;;;;;;14.60;7.63;;;19.50;75.70;;;;;;5116102;28;20030;-70
2023/06/01 03:52:35;;;;;;;15.45;7.80;;;19.40;75.70;;;;;;5116315;28;20020;-69
2023/06/01 03:55:02;;;;;;;15.45;7.72;;;19.40;75.90;;;;;;5115998;28;20019;-69
2023/06/01 03:57:28;;;;;;;10.60;6.97;;;19.40;76.00;;;;;;5115934;28;20031;-69
2023/06/01 03:59:54;;;;;;;12.57;7.25;;;19.40;75.90;;;;;;5116070;28;20026;-69
2023/06/01 04:02:21;;;;;;;27.65;7.90;;;19.40;76.00;;;;;;5116091;28;20102;-70
2023/06/01 04:04:47;;;;;;;24.63;8.30;;;19.40;75.90;;;;;;5115993;28;20046;-69
2023/06/01 04:07:21;;;;;;;23.73;7.53;;;19.40;75.70;;;;;;5115577;28;20023;-70
2023/06/01 04:09:50;;;;;;;16.65;7.53;;;19.40;76.50;;;;;;5116395;28;20072;-71
2023/06/01 04:12:16;;;;;;;16.13;8.10;;;19.40;76.40;;;;;;5116178;28;20099;-72
2023/06/01 04:14:42;;;;;;;14.93;7.65;;;19.40;76.40;;;;;;5116104;28;20048;-70
2023/06/01 04:17:08;;;;;;;14.68;7.40;;;19.40;77.00;;;;;;5115984;28;20028;-71
2023/06/01 04:19:38;;;;;;;22.13;6.70;;;19.40;77.10;;;;;;5115829;28;20077;-71
2023/06/01 04:25:31;;;;;;;11.98;7.20;;;19.40;76.30;;;;;;5052785;28;20354;-72
2023/06/01 04:27:58;;;;;;;14.35;7.20;;;19.40;76.90;;;;;;5115583;28;20055;-71
2023/06/01 04:30:27;;;;;;;16.08;7.25;;;19.40;76.70;;;;;;5115578;28;20027;-71
2023/06/01 04:33:12;;;;;;;;;;;;;;;;;;;;;
2023/06/01 04:36:28;;;;;;;22.80;8.20;;;19.40;77.00;;;;;;5061963;28;20031;-70
2023/06/01 04:38:38;;;;;;;16.33;7.38;;;19.40;76.70;;;;;;5106939;28;20476;-70
2023/06/01 04:41:05;;;;;;;17.90;7.30;;;19.40;77.10;;;;;;5114591;28;20044;-70
2023/06/01 04:43:58;;;;;;;14.10;7.78;;;19.40;77.10;;;;;;5114430;28;20515;-70
2023/06/01 04:46:26;;;;;;;15.70;7.75;;;19.40;77.40;;;;;;5115343;28;20181;-70
2023/06/01 04:48:57;;;;;;;18.58;7.82;;;19.50;77.90;;;;;;5097256;28;20399;-70
2023/06/01 04:51:23;;;;;;;16.17;7.65;;;19.50;78.00;;;;;;5114726;28;20031;-69
2023/06/01 04:53:51;;;;;;;18.95;6.85;;;19.50;78.20;;;;;;5114886;28;20043;-70
2023/06/01 04:56:26;;;;;;;14.18;6.78;;;19.50;77.90;;;;;;5114883;28;20031;-70
2023/06/01 04:58:53;;;;;;;22.70;7.22;;;19.50;77.30;;;;;;5096597;28;20384;-70
2023/06/01 05:01:24;;;;;;;15.13;7.03;;;19.50;77.60;;;;;;5114508;28;20421;-70
2023/06/01 05:03:51;;;;;;;20.40;8.38;;;19.60;77.60;;;;;;5114502;28;20360;-70
2023/06/01 05:06:19;;;;;;;14.15;7.57;;;19.60;77.60;;;;;;5096225;28;20353;-70
2023/06/01 05:08:45;;;;;;;17.25;7.05;;;19.60;77.60;;;;;;5114223;28;20027;-71
2023/06/01 05:11:10;;;;;;;22.25;7.40;;;19.60;78.00;;;;;;5096345;28;20024;-69
2023/06/01 05:13:38;;;;;;;16.83;7.38;;;19.70;78.00;;;;;;5114594;28;20039;-70
2023/06/01 05:16:04;;;;;;;14.70;6.82;;;19.70;78.30;;;;;;5114577;28;20494;-71
2023/06/01 05:18:31;;;;;;;14.82;7.32;;;19.70;78.60;;;;;;5114464;28;20028;-70
2023/06/01 05:20:57;;;;;;;13.85;7.10;;;19.70;78.60;;;;;;5114340;28;20483;-70
2023/06/01 05:23:24;;;;;;;12.23;7.05;;;19.80;79.00;;;;;;5114324;28;20028;-70
2023/06/01 05:25:49;;;;;;;13.88;6.93;;;19.80;78.90;;;;;;5114025;28;20023;-71
2023/06/01 05:28:15;;;;;;;14.13;6.72;;;19.90;78.60;;;;;;5113761;28;20019;-71
2023/06/01 05:30:41;;;;;;;15.10;6.43;;;19.90;78.40;;;;;;5113913;28;20020;-71
2023/06/01 05:33:07;;;;;;;11.85;6.55;;;19.90;78.30;;;;;;5114110;28;20030;-70
2023/06/01 05:35:32;;;;;;;8.48;6.22;;;20.00;78.20;;;;;;5113856;28;20027;-70
2023/06/01 05:37:58;;;;;;;13.20;7.28;;;20.10;78.00;;;;;;5114122;28;20028;-71
2023/06/01 05:40:24;;;;;;;12.52;6.82;;;20.10;77.50;;;;;;5113566;28;20080;-70
2023/06/01 05:42:50;;;;;;;12.95;6.85;;;20.20;77.90;;;;;;5113980;28;20103;-70
2023/06/01 05:45:16;;;;;;;15.95;6.88;;;20.20;77.10;;;;;;5112890;28;20031;-71
2023/06/01 05:47:42;;;;;;;12.57;6.60;;;20.30;77.10;;;;;;5113615;28;20520;-69
2023/06/01 05:50:08;;;;;;;15.25;6.97;;;20.30;77.30;;;;;;5112867;28;20111;-71
2023/06/01 05:52:34;;;;;;;10.95;6.18;;;20.30;77.40;;;;;;5114386;28;20024;-71
2023/06/01 05:55:00;;;;;;;17.77;6.63;;;20.30;77.40;;;;;;5095977;28;20422;-70
2023/06/01 05:57:30;;;;;;;16.35;6.50;;;20.40;77.20;;;;;;5114041;28;20024;-70
2023/06/01 06:10:12;;;;;;;12.20;5.80;;;20.70;75.60;;;;;;5050610;28;20539;-69
2023/06/01 06:22:44;;;;;;;8.13;5.65;;;20.90;73.50;;;;;;5010223;28;20544;-69
2023/06/01 06:25:11;;;;;;;11.68;5.80;;;21.00;73.50;;;;;;5044716;28;20428;-69
2023/06/01 06:27:37;;;;;;;11.48;5.40;;;21.00;74.00;;;;;;5084608;28;20020;-69
2023/06/01 06:30:03;;;;;;;8.77;5.30;;;21.00;73.20;;;;;;5094658;28;20043;-69
2023/06/01 06:32:29;;;;;;;7.57;5.00;;;21.10;73.10;;;;;;5112746;28;20379;-70
2023/06/01 06:34:55;;;;;;;9.07;5.45;;;21.10;72.90;;;;;;5094577;28;20024;-69
2023/06/01 06:37:20;;;;;;;14.48;6.05;;;21.20;72.60;;;;;;5112633;28;20024;-69
2023/06/01 06:39:46;;;;;;;10.90;5.38;;;21.20;72.10;;;;;;5112645;28;20034;-69
2023/06/01 06:42:12;;;;;;;9.40;5.28;;;21.30;72.10;;;;;;5112646;28;20057;-70
2023/06/01 06:44:38;;;;;;;9.57;5.40;;;21.30;72.80;;;;;;5112894;28;20070;-69
2023/06/01 06:47:04;;;;;;;10.07;5.68;;;21.40;72.20;;;;;;5113309;28;20383;-69
2023/06/01 06:49:30;;;;;;;9.85;5.40;;;21.40;72.10;;;;;;5113456;28;20024;-69
2023/06/01 06:52:01;;;;;;;9.70;5.60;;;21.50;72.20;;;;;;5113516;28;20020;-69
2023/06/01 06:58:10;;;;;;;14.68;5.65;;;21.60;71.90;;;;;;5117231;28;20103;-70
2023/06/01 07:01:06;;;;;;;8.65;5.43;;;21.70;71.70;;;;;;5078183;28;20046;-70
2023/06/01 07:03:41;;;;;;;13.68;6.07;;;21.70;71.10;;;;;;5053330;28;20116;-70
2023/06/01 07:06:20;;;;;;;10.32;6.05;;;21.80;71.00;;;;;;5113153;28;20375;-71
2023/06/01 07:08:52;;;;;;;8.23;5.53;;;21.80;70.60;;;;;;5116832;28;20024;-71
2023/06/01 07:11:18;;;;;;;10.75;5.53;;;21.90;70.80;;;;;;5116154;28;20106;-71
2023/06/01 07:13:44;;;;;;;10.48;4.35;;;21.90;69.80;;;;;;5116008;28;20023;-71
2023/06/01 07:16:11;;;;;;;11.50;5.30;;;21.90;69.20;;;;;;5116275;28;20127;-71
2023/06/01 07:18:37;;;;;;;10.27;4.93;;;22.00;69.10;;;;;;5116146;28;20020;-70
2023/06/01 07:21:03;;;;;;;9.02;5.20;;;22.00;68.90;;;;;;5116641;28;20389;-71
2023/06/01 07:23:30;;;;;;;7.10;4.85;;;22.10;68.70;;;;;;5116306;28;20409;-72
2023/06/01 07:25:55;;;;;;;9.27;5.68;;;22.10;68.70;;;;;;5115974;28;20053;-71
2023/06/01 07:28:26;;;;;;;13.15;4.95;;;22.20;68.40;;;;;;5116095;28;20032;-70
2023/06/01 07:30:53;;;;;;;10.15;5.25;;;22.30;68.00;;;;;;5115904;28;20425;-70
2023/06/01 07:33:19;;;;;;;9.80;5.43;;;22.30;67.60;;;;;;5115638;28;20032;-69
2023/06/01 07:35:45;;;;;;;12.45;5.20;;;22.40;67.50;;;;;;5116248;28;20036;-69
2023/06/01 07:38:12;;;;;;;9.27;5.35;;;22.40;67.70;;;;;;5115999;28;20417;-69
2023/06/01 07:40:38;;;;;;;10.40;5.38;;;22.40;68.00;;;;;;5115799;28;20057;-69
2023/06/01 07:43:04;;;;;;;9.93;5.38;;;22.50;68.10;;;;;;5115778;28;20016;-69
2023/06/01 07:45:29;;;;;;;7.38;4.65;;;22.50;67.80;;;;;;5115745;28;20035;-69
2023/06/01 07:47:55;;;;;;;13.27;5.45;;;22.60;67.80;;;;;;5115851;28;20012;-69
2023/06/01 07:50:23;;;;;;;11.63;5.53;;;22.60;66.50;;;;;;5115904;28;20129;-69
2023/06/01 07:52:50;;;;;;;9.48;5.55;;;22.70;66.20;;;;;;5115768;28;20024;-69
2023/06/01 07:55:16;;;;;;;12.40;5.32;;;22.80;66.60;;;;;;5116263;28;20020;-69
2023/06/01 07:57:42;;;;;;;15.95;5.18;;;22.80;66.50;;;;;;5116078;28;20038;-70
2023/06/01 08:00:11;;;;;;;9.10;4.90;;;22.90;65.80;;;;;;5115740;28;20027;-69
2023/06/01 08:02:37;;;;;;;8.60;4.65;;;22.90;65.20;;;;;;5115823;28;20026;-70
2023/06/01 08:05:03;;;;;;;7.35;4.55;;;23.00;65.40;;;;;;5115918;28;20467;-69
2023/06/01 08:07:30;;;;;;;8.13;4.80;;;22.90;65.30;;;;;;5114800;28;20019;-70
2023/06/01 08:09:57;;;;;;;13.07;4.88;;;23.00;65.20;;;;;;5108102;22;20447;-70
2023/06/01 08:12:23;;;;;;;9.70;4.90;;;23.10;65.60;;;;;;5074876;28;20013;-70
2023/06/01 08:14:51;;;;;;;7.85;5.30;;;23.10;65.70;;;;;;5074540;28;20038;-70
2023/06/01 08:17:18;;;;;;;13.15;5.57;;;23.20;66.20;;;;;;5075073;28;20027;-69
2023/06/01 08:19:45;;;;;;;14.85;5.20;;;23.30;65.90;;;;;;5075016;28;20052;-69
2023/06/01 08:22:14;;;;;;;11.05;5.47;;;23.30;65.80;;;;;;5074445;28;20100;-69
2023/06/01 08:24:40;;;;;;;11.38;5.22;;;23.40;65.30;;;;;;5075224;28;20380;-69
2023/06/01 08:27:22;;;;;;;10.65;5.28;;;23.40;65.10;;;;;;5075464;28;20021;-69
2023/06/01 08:29:49;;;;;;;10.80;5.47;;;23.50;65.40;;;;;;5075518;28;20028;-69
2023/06/01 08:32:45;;;;;;;11.60;5.30;;;23.60;65.10;;;;;;5075428;28;20108;-70
2023/06/01 08:39:50;;;;;;;15.82;5.72;;;23.70;64.80;;;;;;4949457;28;20075;-70
2023/06/01 08:47:08;;;;;;;10.57;5.45;;;23.80;63.40;;;;;;4921766;29;20157;-70
2023/06/01 08:50:11;;;;;;;7.38;4.93;;;23.90;63.30;;;;;;4905537;28;20036;-70
2023/06/01 08:56:26;;;;;;;11.52;5.70;;;24.00;64.00;;;;;;4934385;29;20792;-69
2023/06/01 08:58:52;;;;;;;7.65;5.30;;;24.00;62.70;;;;;;4935028;29;20045;-70
2023/06/01 09:01:21;;;;;;;11.90;5.22;;;24.10;63.20;;;;;;5041445;28;20078;-69
2023/06/01 09:03:51;;;;;;;7.18;4.95;;;24.20;63.20;;;;;;5073274;28;20411;-69
2023/06/01 09:06:17;;;;;;;6.78;5.05;;;24.20;63.10;;;;;;5074421;28;20446;-69
2023/06/01 09:08:45;;;;;;;8.70;5.65;;;24.40;61.90;;;;;;5074069;28;20056;-69
2023/06/01 09:11:11;;;;;;;7.97;5.20;;;24.40;61.30;;;;;;5073887;28;20415;-70
2023/06/01 09:13:38;;;;;;;10.10;5.30;;;24.40;61.40;;;;;;5074063;28;20095;-69
2023/06/01 09:16:04;;;;;;;11.35;4.97;;;24.40;62.10;;;;;;5073720;28;20360;-69
2023/06/01 09:18:30;;;;;;;8.77;5.30;;;24.40;61.20;;;;;;5073548;28;20029;-69
2023/06/01 09:21:13;;;;;;;15.15;5.38;;;24.50;61.20;;;;;;5073720;28;20070;-69
2023/06/01 09:23:39;;;;;;;11.18;4.88;;;24.50;60.90;;;;;;5072303;28;20059;-68
2023/06/01 09:26:12;;;;;;;9.45;5.03;;;24.60;61.10;;;;;;5073720;28;20476;-69
2023/06/01 09:28:58;;;;;;;18.92;5.15;;;24.60;60.90;;;;;;5073352;28;20538;-69
2023/06/01 09:31:44;;;;;;;8.73;4.78;;;24.70;60.00;;;;;;5073626;28;20028;-69
2023/06/01 09:34:21;;;;;;;8.15;4.50;;;24.70;59.20;;;;;;5073504;28;20451;-69
2023/06/01 09:36:54;;;;;;;8.63;4.60;;;24.70;59.20;;;;;;5073247;28;20051;-68
2023/06/01 09:39:23;;;;;;;7.95;5.07;;;24.80;59.30;;;;;;5073147;28;20028;-69
2023/06/01 09:41:59;;;;;;;11.50;4.63;;;24.90;60.10;;;;;;5073493;28;20020;-69
2023/06/01 09:44:36;;;;;;;7.75;4.82;;;25.00;59.70;;;;;;5073214;28;20036;-69
2023/06/01 09:47:04;;;;;;;8.48;4.82;;;25.10;60.00;;;;;;5073120;28;20063;-69
2023/06/01 09:49:41;;;;;;;8.85;4.28;;;25.20;59.80;;;;;;5073049;28;20574;-69
2023/06/01 09:52:07;;;;;;;12.60;4.75;;;25.30;59.10;;;;;;5073235;28;20484;-69
2023/06/01 09:54:36;;;;;;;10.70;4.20;;;25.40;57.80;;;;;;5073061;28;20027;-69
2023/06/01 09:57:03;;;;;;;8.88;4.57;;;25.40;56.20;;;;;;5072858;28;20029;-69
2023/06/01 09:59:37;;;;;;;7.82;4.70;;;25.50;55.50;;;;;;5073482;28;20066;-69
2023/06/01 10:02:04;;;;;;;9.05;4.18;;;25.50;55.70;;;;;;5073546;28;20025;-69
2023/06/01 10:04:31;;;;;;;10.48;4.47;;;25.60;55.20;;;;;;5073643;28;20036;-68
2023/06/01 10:06:58;;;;;;;12.25;4.72;;;25.60;54.80;;;;;;5054675;28;20020;-69
2023/06/01 10:10:02;;;;;;;;;;;;;;;;;;;;;
2023/06/01 10:12:58;;;;;;;8.05;4.63;;;25.70;55.40;;;;;;5067592;28;20044;-68
2023/06/01 10:23:01;;;;;;;7.35;3.92;;;26.00;55.20;;;;;;4991608;28;20033;-68
2023/06/01 10:28:55;;;;;;;9.45;4.72;;;26.10;54.00;;;;;;4971273;28;20035;-68
2023/06/01 10:31:52;;;;;;;11.40;5.25;;;26.10;53.40;;;;;;4970588;28;20066;-68
2023/06/01 10:34:37;;;;;;;6.10;4.00;;;26.10;54.20;;;;;;4971977;28;20027;-70
2023/06/01 10:37:03;;;;;;;6.53;4.35;;;26.20;53.60;;;;;;4971558;28;20035;-69
2023/06/01 10:39:31;;;;;;;11.80;4.95;;;26.20;53.90;;;;;;4994934;28;20033;-68
2023/06/01 10:42:18;;;;;;;6.88;3.80;;;26.30;53.80;;;;;;5072662;28;20426;-68
2023/06/01 10:44:50;;;;;;;5.22;4.10;;;26.20;53.70;;;;;;5069680;28;20040;-69
2023/06/01 10:47:36;;;;;;;9.38;4.28;;;26.30;53.60;;;;;;5068584;28;20380;-69
2023/06/01 10:50:01;;;;;;;9.82;4.32;;;26.30;53.10;;;;;;5069229;28;20166;-69
2023/06/01 10:52:33;;;;;;;8.40;4.90;;;26.30;54.10;;;;;;5069862;28;20103;-69
2023/06/01 10:55:13;;;;;;;7.93;4.22;;;26.40;53.90;;;;;;5071332;28;20089;-69
2023/06/01 10:57:44;;;;;;;6.85;4.18;;;26.50;54.10;;;;;;5072531;28;20032;-68
2023/06/01 11:00:24;;;;;;;8.68;5.25;;;26.50;53.10;;;;;;5071772;28;20027;-68
2023/06/01 11:03:01;;;;;;;8.95;4.53;;;26.60;53.70;;;;;;5072018;28;20020;-69
2023/06/01 11:05:56;;;;;;;6.88;4.25;;;26.60;53.40;;;;;;5072068;28;20083;-69
2023/06/01 11:08:22;;;;;;;10.00;4.60;;;26.70;53.60;;;;;;5050974;28;20507;-68
2023/06/01 11:10:54;;;;;;;6.53;4.10;;;26.70;54.60;;;;;;5062637;28;20049;-69
2023/06/01 11:13:25;;;;;;;4.90;3.35;;;26.70;53.50;;;;;;5052050;28;20021;-69
2023/06/01 11:16:21;;;;;;;5.72;4.10;;;26.70;53.00;;;;;;5052050;28;20025;-68
2023/06/01 11:18:57;;;;;;;4.65;3.65;;;26.80;53.70;;;;;;5052169;28;20449;-72
2023/06/01 11:21:40;;;;;;;11.43;3.90;;;26.90;51.80;;;;;;5052034;28;20477;-72
2023/06/01 11:24:09;;;;;;;7.43;4.32;;;26.90;53.00;;;;;;5051914;28;20108;-68
2023/06/01 11:26:36;;;;;;;5.35;4.00;;;27.00;52.80;;;;;;5052172;28;20025;-68
2023/06/01 11:29:07;;;;;;;9.27;4.13;;;27.00;52.00;;;;;;5052000;28;20025;-68
2023/06/01 11:31:43;;;;;;;8.63;3.85;;;27.00;51.10;;;;;;5050801;28;20067;-68
2023/06/01 11:34:10;;;;;;;5.75;4.20;;;27.00;51.20;;;;;;5049871;28;20040;-69
2023/06/01 11:36:48;;;;;;;8.68;4.30;;;27.00;51.70;;;;;;5049749;28;20060;-69
2023/06/01 11:39:25;;;;;;;8.23;4.20;;;27.00;51.10;;;;;;5052174;28;20099;-68
2023/06/01 11:42:34;;;;;;;8.65;4.30;;;27.00;51.50;;;;;;5051680;28;20039;-69
2023/06/01 11:45:00;;;;;;;8.65;4.40;;;27.00;50.90;;;;;;5055580;28;20384;-68
2023/06/01 11:47:32;;;;;;;7.10;3.80;;;27.00;51.20;;;;;;5055341;28;20492;-69
2023/06/01 11:55:51;;;;;;;10.23;5.10;;;27.00;51.00;;;;;;5023510;28;20069;-69
2023/06/01 11:58:36;;;;;;;14.60;4.88;;;27.00;52.90;;;;;;5055389;28;20036;-69
2023/06/01 12:01:04;;;;;;;14.50;5.53;;;27.10;55.10;;;;;;5054608;28;20451;-69
2023/06/01 12:03:31;;;;;;;11.38;5.13;;;27.00;55.70;;;;;;5055086;28;20032;-69
2023/06/01 12:05:58;;;;;;;11.13;5.10;;;27.00;55.70;;;;;;5055238;28;20389;-69
2023/06/01 12:08:25;;;;;;;11.55;5.30;;;27.00;56.90;;;;;;5054870;28;20106;-69
2023/06/01 12:10:52;;;;;;;12.88;5.25;;;27.00;56.50;;;;;;5045543;28;20045;-69
2023/06/01 12:13:19;;;;;;;11.45;5.50;;;27.00;56.60;;;;;;5035298;28;20032;-70
2023/06/01 12:15:46;;;;;;;17.95;5.20;;;27.00;56.60;;;;;;5034544;28;20397;-69
2023/06/01 12:18:12;;;;;;;14.60;5.13;;;27.10;56.40;;;;;;5017023;28;20484;-70
2023/06/01 12:20:45;;;;;;;11.90;5.40;;;27.00;56.20;;;;;;5034865;28;20025;-69
2023/06/01 12:23:14;;;;;;;8.00;5.07;;;27.00;56.30;;;;;;5032820;28;20033;-69
2023/06/01 12:25:55;;;;;;;10.13;5.60;;;27.00;56.40;;;;;;5031786;28;20481;-70
2023/06/01 12:28:21;;;;;;;13.70;5.65;;;27.00;56.10;;;;;;5033680;28;20021;-69
2023/06/01 12:30:48;;;;;;;8.70;5.18;;;27.00;55.80;;;;;;5034694;28;20032;-70
2023/06/01 12:33:34;;;;;;;9.20;5.05;;;26.90;55.70;;;;;;5032772;28;20485;-69
2023/06/01 12:36:03;;;;;;;11.57;5.20;;;26.80;55.80;;;;;;5034623;28;20025;-69
2023/06/01 12:38:33;;;;;;;6.70;5.20;;;26.80;56.30;;;;;;5034607;28;20478;-68
2023/06/01 12:41:11;;;;;;;14.00;5.53;;;26.80;57.80;;;;;;5034685;28;20409;-70
2023/06/01 12:43:38;;;;;;;11.45;5.15;;;26.70;59.70;;;;;;5034200;28;20339;-70
2023/06/01 12:46:05;;;;;;;12.50;5.25;;;26.70;60.20;;;;;;5034533;28;20030;-72
2023/06/01 12:48:33;;;;;;;15.10;5.47;;;26.70;60.40;;;;;;5034379;28;20069;-72
2023/06/01 12:50:59;;;;;;;8.55;5.05;;;26.60;60.80;;;;;;5034561;28;20421;-72
2023/06/01 12:53:25;;;;;;;20.70;7.35;;;26.60;61.80;;;;;;5034435;28;20025;-71
2023/06/01 12:55:51;;;;;;;25.38;8.23;;;26.60;64.50;;;;;;5033717;28;20045;-72
2023/06/01 12:58:17;;;;;;;30.95;8.98;;;26.50;67.80;;;;;;5034050;28;20033;-71
2023/06/01 13:00:42;;;;;;;24.20;8.43;;;26.40;70.70;;;;;;5033513;28;20052;-69
2023/06/01 13:03:08;;;;;;;14.77;6.80;;;26.40;72.00;;;;;;5034719;28;20481;-69
2023/06/01 13:05:34;;;;;;;16.15;6.45;;;26.40;72.90;;;;;;5017125;28;20120;-69
2023/06/01 13:08:01;;;;;;;9.00;5.68;;;26.30;73.90;;;;;;5034857;28;20030;-69
2023/06/01 13:10:26;;;;;;;11.30;5.93;;;26.20;74.00;;;;;;5040414;28;20049;-69
2023/06/01 13:16:22;;;;;;;7.70;6.10;;;26.10;75.00;;;;;;4991601;28;20093;-69
2023/06/01 13:18:51;;;;;;;7.65;5.70;;;26.00;75.20;;;;;;4993037;28;20194;-69
2023/06/01 13:21:18;;;;;;;6.70;4.75;;;25.90;75.00;;;;;;5037936;28;20396;-69
2023/06/01 13:23:46;;;;;;;15.38;5.50;;;25.80;73.00;;;;;;5053710;28;20032;-69
2023/06/01 13:29:39;;;;;;;6.45;5.20;;;25.70;72.00;;;;;;5011499;28;20037;-69
2023/06/01 13:32:06;;;;;;;7.15;5.38;;;25.60;74.00;;;;;;5011651;28;20144;-69
2023/06/01 13:35:04;;;;;;;7.97;5.20;;;25.50;75.80;;;;;;5010967;28;20142;-69
2023/06/01 13:37:30;;;;;;;9.40;5.25;;;25.50;75.30;;;;;;5006465;28;20046;-69
2023/06/01 13:39:56;;;;;;;8.70;5.32;;;25.40;76.30;;;;;;5020162;28;20032;-69
2023/06/01 13:42:22;;;;;;;9.68;5.20;;;25.40;77.00;;;;;;5053428;28;20484;-69
2023/06/01 13:44:48;;;;;;;9.25;5.25;;;25.40;77.10;;;;;;5035497;28;20525;-69
2023/06/01 13:47:14;;;;;;;13.93;5.90;;;25.40;78.00;;;;;;5053248;28;20033;-69
2023/06/01 13:49:42;;;;;;;12.02;6.28;;;25.40;79.60;;;;;;5035446;28;20416;-69
2023/06/01 13:52:08;;;;;;;8.77;5.32;;;25.40;80.50;;;;;;5053042;28;20100;-69
2023/06/01 13:54:35;;;;;;;9.45;5.57;;;25.40;80.90;;;;;;5052518;28;20048;-69
2023/06/01 13:57:02;;;;;;;13.18;6.22;;;25.40;80.20;;;;;;5051195;28;20429;-69
2023/06/01 13:59:30;;;;;;;8.05;5.70;;;25.40;80.20;;;;;;5051871;28;20063;-69
2023/06/01 14:01:56;;;;;;;8.40;5.50;;;25.40;81.10;;;;;;5052523;28;20025;-69
2023/06/01 14:04:22;;;;;;;13.27;5.07;;;25.40;81.60;;;;;;5051332;28;20044;-69
2023/06/01 14:06:50;;;;;;;7.43;5.18;;;25.40;80.80;;;;;;5051393;28;20029;-69
2023/06/01 14:09:17;;;;;;;5.88;4.95;;;25.40;80.50;;;;;;5052159;28;20505;-70
2023/06/01 14:11:43;;;;;;;9.88;5.45;;;25.40;80.50;;;;;;5033713;28;20492;-69
2023/06/01 14:14:08;;;;;;;9.35;5.22;;;25.40;80.30;;;;;;5051179;28;20028;-69
2023/06/01 14:16:34;;;;;;;7.00;5.00;;;25.40;80.90;;;;;;5051827;28;20035;-70
2023/06/01 14:19:00;;;;;;;8.68;4.60;;;25.50;80.40;;;;;;5051739;28;20040;-69
2023/06/01 14:21:28;;;;;;;9.20;4.63;;;25.40;78.60;;;;;;5052127;28;20028;-70
2023/06/01 14:23:55;;;;;;;7.28;4.60;;;25.50;77.90;;;;;;5049566;28;20039;-70
2023/06/01 14:26:22;;;;;;;7.60;5.38;;;25.40;76.90;;;;;;5049129;28;20461;-69
2023/06/01 14:28:49;;;;;;;7.45;5.18;;;25.40;76.60;;;;;;5052642;28;20059;-69
2023/06/01 14:31:15;;;;;;;6.22;5.03;;;25.40;76.80;;;;;;5052582;28;20063;-69
2023/06/01 14:33:42;;;;;;;11.57;5.18;;;25.40;76.00;;;;;;5049759;28;20071;-68